Time;durP1;ratioP1;P1;durP2;ratioP2;P2;SDS_P1;SDS_P2;PMS_P1;PMS_P2;Temp;Humidity;BMP_temperature;BMP_pressure;BME280_temperature;BME280_humidity;BME280_pressure;Samples;Min_cycle;Max_cycle;Signal;HPM_P1;HPM_P2
2023/05/30 00:04:09;;;;;;;7.45;4.88;;;;;;;-145.70;100.00;63560.63;5013593;28;20033;-60
2023/05/30 00:07:36;;;;;;;9.30;5.05;;;;;;;-145.70;100.00;63560.63;4997927;28;20727;-62
2023/05/30 00:11:03;;;;;;;7.75;4.88;;;;;;;-145.70;100.00;63560.63;4993067;28;20032;-61
2023/05/30 00:14:47;;;;;;;8.95;5.43;;;;;;;-145.70;100.00;63560.63;5004328;28;20095;-62
2023/05/30 00:18:22;;;;;;;10.63;5.07;;;;;;;-145.70;100.00;63560.63;4998250;28;20044;-61
2023/05/30 00:21:47;;;;;;;11.38;5.57;;;;;;;-145.70;100.00;63560.63;5022184;28;20025;-60
2023/05/30 00:25:13;;;;;;;9.50;5.68;;;;;;;-145.70;100.00;63560.63;5004862;28;20467;-62
2023/05/30 00:28:43;;;;;;;7.93;5.55;;;;;;;-145.70;100.00;63560.63;4996061;28;20028;-60
2023/05/30 00:32:30;;;;;;;8.77;5.60;;;;;;;-145.70;100.00;63560.63;5000657;28;20047;-62
2023/05/30 00:35:59;;;;;;;8.88;5.13;;;;;;;-145.70;100.00;63560.63;5019828;28;20809;-61
2023/05/30 00:39:36;;;;;;;9.15;5.50;;;;;;;-145.70;100.00;63560.63;5013158;28;20033;-61
2023/05/30 00:47:17;;;;;;;7.97;5.35;;;;;;;-145.70;100.00;63560.63;4992899;28;20747;-62
2023/05/30 00:50:48;;;;;;;9.90;5.85;;;;;;;-145.70;100.00;63560.63;4996493;28;20025;-61
2023/05/30 00:54:42;;;;;;;9.88;5.75;;;;;;;-145.70;100.00;63560.63;4997204;28;20048;-61
2023/05/30 00:58:23;;;;;;;9.27;5.65;;;;;;;-145.70;100.00;63560.63;5010126;28;20559;-61
2023/05/30 01:01:50;;;;;;;11.25;5.97;;;;;;;-145.70;100.00;63560.63;5002072;28;20111;-61
2023/05/30 01:05:17;;;;;;;8.57;5.20;;;;;;;-145.70;100.00;63560.63;4993463;28;20535;-61
2023/05/30 01:08:41;;;;;;;10.10;5.85;;;;;;;-145.70;100.00;63560.63;5004059;28;20089;-61
2023/05/30 01:12:25;;;;;;;9.18;5.72;;;;;;;-145.70;100.00;63560.63;5029579;28;20502;-61
2023/05/30 01:16:34;;;;;;;9.85;6.07;;;;;;;-145.70;100.00;63560.63;5006999;28;20034;-64
2023/05/30 01:20:07;;;;;;;10.93;6.28;;;;;;;-145.70;100.00;63560.63;4928428;28;20035;-64
2023/05/30 01:23:36;;;;;;;10.07;5.78;;;;;;;-145.70;100.00;63560.63;4926217;28;20055;-61
2023/05/30 01:27:07;;;;;;;9.57;6.10;;;;;;;-145.70;100.00;63560.63;4928273;28;20035;-61
2023/05/30 01:30:35;;;;;;;10.95;6.35;;;;;;;-145.70;100.00;63560.63;4936880;28;20788;-62
2023/05/30 01:34:00;;;;;;;11.35;6.65;;;;;;;-145.70;100.00;63560.63;4903262;28;20463;-61
2023/05/30 01:37:29;;;;;;;11.32;6.22;;;;;;;-145.70;100.00;63560.63;4936205;28;20043;-60
2023/05/30 01:41:06;;;;;;;10.35;5.93;;;;;;;-145.70;100.00;63560.63;4935709;28;20794;-61
2023/05/30 01:45:02;;;;;;;9.30;6.40;;;;;;;-145.70;100.00;63560.63;4919391;28;20063;-61
2023/05/30 01:48:36;;;;;;;13.70;6.90;;;;;;;-145.70;100.00;63560.63;4934032;28;20039;-60
2023/05/30 01:52:05;;;;;;;10.98;6.65;;;;;;;-145.70;100.00;63560.63;5030640;28;20032;-63
2023/05/30 01:55:32;;;;;;;;;;;;;;;-145.70;100.00;63560.63;5015053;28;20068;-62
2023/05/30 01:58:59;;;;;;;11.38;6.70;;;;;;;-145.70;100.00;63560.63;5002517;28;19920;-61
2023/05/30 02:02:27;;;;;;;9.57;6.75;;;;;;;-145.70;100.00;63560.63;5013661;28;20133;-62
2023/05/30 02:05:53;;;;;;;12.35;6.85;;;;;;;-145.70;100.00;63560.63;4995243;28;20041;-63
2023/05/30 02:09:17;;;;;;;11.65;7.13;;;;;;;-145.70;100.00;63560.63;4999001;28;20044;-62
2023/05/30 02:12:46;;;;;;;14.63;7.32;;;;;;;-145.70;100.00;63560.63;4999203;28;20036;-62
2023/05/30 02:16:18;;;;;;;15.50;7.67;;;;;;;-145.70;100.00;63560.63;4998115;28;20030;-61
2023/05/30 02:19:43;;;;;;;12.90;7.72;;;;;;;-145.70;100.00;63560.63;5017345;28;20032;-62
2023/05/30 02:23:14;;;;;;;12.95;8.82;;;;;;;-145.70;100.00;63560.63;5023601;28;20036;-62
2023/05/30 02:26:40;;;;;;;13.15;8.52;;;;;;;-145.70;100.00;63560.63;4996490;28;20032;-61
2023/05/30 02:30:10;;;;;;;13.18;7.90;;;;;;;-145.70;100.00;63560.63;5031590;28;20037;-61
2023/05/30 02:33:34;;;;;;;12.20;8.00;;;;;;;-145.70;100.00;63560.63;5033090;28;20033;-62
2023/05/30 02:37:03;;;;;;;13.43;8.15;;;;;;;-145.70;100.00;63560.63;5015594;28;20090;-61
2023/05/30 02:40:33;;;;;;;16.50;7.97;;;;;;;-145.70;100.00;63560.63;5013936;28;20086;-62
2023/05/30 02:43:59;;;;;;;11.32;7.35;;;;;;;-145.70;100.00;63560.63;5008343;28;20435;-62
2023/05/30 02:47:23;;;;;;;13.40;7.85;;;;;;;-145.70;100.00;63560.63;5032996;28;21247;-62
2023/05/30 02:50:52;;;;;;;11.70;6.88;;;;;;;-145.70;100.00;63560.63;5033089;28;20072;-62
2023/05/30 02:54:23;;;;;;;12.35;7.13;;;;;;;-145.70;100.00;63560.63;5011934;28;20037;-63
2023/05/30 02:57:47;;;;;;;10.90;6.65;;;;;;;-145.70;100.00;63560.63;4993523;28;20156;-61
2023/05/30 03:01:14;;;;;;;13.93;6.22;;;;;;;-145.70;100.00;63560.63;5011860;28;20060;-63
2023/05/30 03:04:38;;;;;;;8.98;6.00;;;;;;;-145.70;100.00;63560.63;5027525;28;20112;-63
2023/05/30 03:08:03;;;;;;;11.77;7.28;;;;;;;-145.70;100.00;63560.63;4986793;28;20090;-63
2023/05/30 03:11:30;;;;;;;10.23;6.72;;;;;;;-145.70;100.00;63560.63;5005052;28;20800;-62
2023/05/30 03:15:04;;;;;;;10.00;6.22;;;;;;;-145.70;100.00;63560.63;5006742;28;20051;-62
2023/05/30 03:18:34;;;;;;;9.55;5.75;;;;;;;-145.70;100.00;63560.63;5011850;28;20153;-63
2023/05/30 03:22:01;;;;;;;10.55;5.72;;;;;;;-145.70;100.00;63560.63;4990756;28;20025;-61
2023/05/30 03:25:25;;;;;;;9.15;5.60;;;;;;;-145.70;100.00;63560.63;5002753;28;20032;-61
2023/05/30 03:28:53;;;;;;;8.20;5.47;;;;;;;-145.70;100.00;63560.63;5019739;28;20037;-62
2023/05/30 03:32:19;;;;;;;8.88;5.03;;;;;;;-145.70;100.00;63560.63;5002584;28;20112;-63
2023/05/30 03:35:43;;;;;;;8.45;4.80;;;;;;;-145.70;100.00;63560.63;4982588;28;20033;-64
2023/05/30 03:39:09;;;;;;;8.48;4.97;;;;;;;-145.70;100.00;63560.63;5008087;28;20127;-60
2023/05/30 03:42:37;;;;;;;8.80;5.28;;;;;;;-145.70;100.00;63560.63;5025454;28;20064;-62
2023/05/30 03:46:07;;;;;;;8.70;5.35;;;;;;;-145.70;100.00;63560.63;5018251;28;20082;-62
2023/05/30 03:49:37;;;;;;;9.73;5.10;;;;;;;-145.70;100.00;63560.63;5004023;28;20025;-63
2023/05/30 03:53:03;;;;;;;7.07;4.90;;;;;;;-145.70;100.00;63560.63;5009059;28;20132;-60
2023/05/30 03:56:33;;;;;;;7.78;4.57;;;;;;;-145.70;100.00;63560.63;5007611;28;20304;-61
2023/05/30 04:00:05;;;;;;;8.25;5.15;;;;;;;-145.70;100.00;63560.63;5003616;28;20041;-63
2023/05/30 04:03:31;;;;;;;7.82;5.10;;;;;;;-145.70;100.00;63560.63;5009118;28;20116;-62
2023/05/30 04:07:01;;;;;;;8.45;4.78;;;;;;;-145.70;100.00;63560.63;5007029;28;20594;-63
2023/05/30 04:10:25;;;;;;;8.05;4.90;;;;;;;-145.70;100.00;63560.63;5009766;28;20048;-62
2023/05/30 04:13:49;;;;;;;7.93;4.38;;;;;;;-145.70;100.00;63560.63;4992017;28;20115;-62
2023/05/30 04:17:15;;;;;;;8.00;4.40;;;;;;;-145.70;100.00;63560.63;4992937;28;20050;-61
2023/05/30 04:20:41;;;;;;;8.32;4.40;;;;;;;-145.70;100.00;63560.63;4985505;28;20065;-61
2023/05/30 04:24:10;;;;;;;10.48;5.20;;;;;;;-145.70;100.00;63560.63;5020108;28;20033;-61
2023/05/30 04:27:35;;;;;;;9.05;4.57;;;;;;;-145.70;100.00;63560.63;5008144;28;20131;-61
2023/05/30 04:31:01;;;;;;;8.88;5.03;;;;;;;-145.70;100.00;63560.63;5021123;28;20108;-61
2023/05/30 04:34:28;;;;;;;8.32;5.00;;;;;;;-145.70;100.00;63560.63;5025217;28;20055;-65
2023/05/30 04:37:55;;;;;;;11.30;5.47;;;;;;;-145.70;100.00;63560.63;5006285;28;20049;-62
2023/05/30 04:41:25;;;;;;;8.70;4.80;;;;;;;-145.70;100.00;63560.63;5012510;28;20036;-63
2023/05/30 04:44:50;;;;;;;7.97;4.55;;;;;;;-145.70;100.00;63560.63;4997576;28;20033;-61
2023/05/30 04:48:16;;;;;;;7.75;5.13;;;;;;;-145.70;100.00;63560.63;5014152;28;20112;-62
2023/05/30 04:51:40;;;;;;;9.77;4.50;;;;;;;-145.70;100.00;63560.63;5016918;28;20041;-61
2023/05/30 04:55:08;;;;;;;7.25;4.60;;;;;;;-145.70;100.00;63560.63;5000102;28;20117;-65
2023/05/30 04:58:34;;;;;;;9.07;4.90;;;;;;;-145.70;100.00;63560.63;5016880;28;20112;-61
2023/05/30 05:02:01;;;;;;;8.32;5.10;;;;;;;-145.70;100.00;63560.63;5028609;28;20079;-61
2023/05/30 05:05:30;;;;;;;8.63;5.22;;;;;;;-145.70;100.00;63560.63;4992820;28;20079;-62
2023/05/30 05:08:55;;;;;;;7.85;4.70;;;;;;;-145.70;100.00;63560.63;5021862;28;20035;-63
2023/05/30 05:12:19;;;;;;;8.15;4.53;;;;;;;-145.70;100.00;63560.63;5021691;28;20037;-64
2023/05/30 05:15:46;;;;;;;8.13;4.40;;;;;;;-145.70;100.00;63560.63;4998481;28;20820;-59
2023/05/30 05:19:10;;;;;;;10.70;4.97;;;;;;;-145.70;100.00;63560.63;4999926;28;20218;-60
2023/05/30 05:22:40;;;;;;;8.43;5.00;;;;;;;-145.70;100.00;63560.63;5012444;28;20105;-62
2023/05/30 05:26:07;;;;;;;8.98;4.85;;;;;;;-145.70;100.00;63560.63;5013217;28;20105;-60
2023/05/30 05:29:31;;;;;;;10.00;4.90;;;;;;;-145.70;100.00;63560.63;4995804;28;20037;-62
2023/05/30 05:33:00;;;;;;;8.07;4.30;;;;;;;-145.70;100.00;63560.63;4984515;28;20028;-59
2023/05/30 05:36:24;;;;;;;9.60;5.07;;;;;;;-145.70;100.00;63560.63;5010434;28;20034;-60
2023/05/30 05:39:50;;;;;;;7.68;4.75;;;;;;;-145.70;100.00;63560.63;5006424;28;20093;-62
2023/05/30 05:43:17;;;;;;;10.15;4.20;;;;;;;-145.70;100.00;63560.63;5025040;28;20079;-62
2023/05/30 05:46:41;;;;;;;9.07;4.88;;;;;;;-145.70;100.00;63560.63;5024267;28;20033;-63
2023/05/30 05:50:05;;;;;;;8.68;4.53;;;;;;;-145.70;100.00;63560.63;5000953;28;20036;-62
2023/05/30 05:53:42;;;;;;;10.07;4.70;;;;;;;-145.70;100.00;63560.63;5009641;28;20613;-61
2023/05/30 05:57:09;;;;;;;7.68;4.30;;;;;;;-145.70;100.00;63560.63;5030804;28;20041;-61
2023/05/30 06:00:34;;;;;;;8.93;4.47;;;;;;;-145.70;100.00;63560.63;5016624;28;20147;-61
2023/05/30 06:04:07;;;;;;;8.50;4.80;;;;;;;-145.70;100.00;63560.63;5006745;28;20108;-62
2023/05/30 06:07:35;;;;;;;6.97;3.92;;;;;;;-145.70;100.00;63560.63;5005514;28;20053;-61
2023/05/30 06:10:59;;;;;;;8.15;4.47;;;;;;;-145.70;100.00;63560.63;4991071;28;20037;-61
2023/05/30 06:14:23;;;;;;;7.40;4.30;;;;;;;-145.70;100.00;63560.63;5022689;28;20025;-62
2023/05/30 06:17:50;;;;;;;8.25;4.25;;;;;;;-145.70;100.00;63560.63;5013139;28;20037;-62
2023/05/30 06:21:14;;;;;;;8.27;4.72;;;;;;;-145.70;100.00;63560.63;5011887;28;20025;-61
2023/05/30 06:24:38;;;;;;;9.38;4.78;;;;;;;-145.70;100.00;63560.63;5026372;28;20035;-61
2023/05/30 06:28:02;;;;;;;7.50;4.40;;;;;;;-145.70;100.00;63560.63;5017400;28;20235;-60
2023/05/30 06:31:28;;;;;;;7.25;4.32;;;;;;;-145.70;100.00;63560.63;5026879;28;20040;-59
2023/05/30 06:34:57;;;;;;;8.60;4.18;;;;;;;-145.70;100.00;63560.63;4998826;28;20058;-60
2023/05/30 06:38:23;;;;;;;8.13;4.13;;;;;;;-145.70;100.00;63560.63;4992167;28;20049;-60
2023/05/30 06:41:50;;;;;;;7.75;4.40;;;;;;;-145.70;100.00;63560.63;5020331;28;20028;-60
2023/05/30 06:45:16;;;;;;;8.40;4.38;;;;;;;-145.70;100.00;63560.63;5010807;28;20036;-62
2023/05/30 06:48:40;;;;;;;10.95;4.75;;;;;;;-145.70;100.00;63560.63;5009019;28;20037;-61
2023/05/30 06:52:09;;;;;;;8.13;4.90;;;;;;;-145.70;100.00;63560.63;5032027;28;20032;-61
2023/05/30 06:55:36;;;;;;;7.63;4.32;;;;;;;-145.70;100.00;63560.63;5009864;28;20052;-60
2023/05/30 06:59:02;;;;;;;6.80;4.18;;;;;;;-145.70;100.00;63560.63;5009587;28;20041;-60
2023/05/30 07:02:26;;;;;;;8.73;4.35;;;;;;;-145.70;100.00;63560.63;5013461;28;20103;-61
2023/05/30 07:06:03;;;;;;;9.10;4.65;;;;;;;-145.70;100.00;63560.63;5011503;28;20043;-60
2023/05/30 07:09:27;;;;;;;7.13;4.43;;;;;;;-145.70;100.00;63560.63;5006358;28;20122;-64
2023/05/30 07:12:57;;;;;;;8.18;4.78;;;;;;;-145.70;100.00;63560.63;5021122;28;20036;-61
2023/05/30 07:16:23;;;;;;;8.43;4.55;;;;;;;-145.70;100.00;63560.63;4992193;28;20045;-60
2023/05/30 07:19:50;;;;;;;7.65;4.38;;;;;;;-145.70;100.00;63560.63;4994358;28;20136;-61
2023/05/30 07:23:14;;;;;;;8.02;4.53;;;;;;;-145.70;100.00;63560.63;4994921;28;20057;-61
2023/05/30 07:26:42;;;;;;;8.65;4.97;;;;;;;-145.70;100.00;63560.63;5001507;28;20375;-61
2023/05/30 07:30:06;;;;;;;7.83;4.47;;;;;;;-145.70;100.00;63560.63;5005565;28;20277;-61
2023/05/30 07:33:31;;;;;;;7.50;4.82;;;;;;;-145.70;100.00;63560.63;4994235;28;20055;-62
2023/05/30 07:36:59;;;;;;;10.07;4.55;;;;;;;-145.70;100.00;63560.63;5003563;28;20125;-61
2023/05/30 07:40:26;;;;;;;8.38;4.72;;;;;;;-145.70;100.00;63560.63;5013491;28;20028;-60
2023/05/30 07:43:55;;;;;;;8.15;4.40;;;;;;;-145.70;100.00;63560.63;5004019;28;20033;-61
2023/05/30 07:47:27;;;;;;;7.80;4.65;;;;;;;-145.70;100.00;63560.63;4992198;28;20868;-59
2023/05/30 07:50:53;;;;;;;9.13;5.07;;;;;;;-145.70;100.00;63560.63;5006741;28;20067;-60
2023/05/30 07:54:19;;;;;;;7.47;4.25;;;;;;;-145.70;100.00;63560.63;4993494;28;20086;-61
2023/05/30 07:57:43;;;;;;;9.48;4.78;;;;;;;-145.70;100.00;63560.63;5004038;28;20017;-58
2023/05/30 08:01:10;;;;;;;8.70;5.07;;;;;;;-145.70;100.00;63560.63;5006936;28;20030;-61
2023/05/30 08:04:43;;;;;;;8.30;4.65;;;;;;;-145.70;100.00;63560.63;5018880;28;20751;-61
2023/05/30 08:08:09;;;;;;;7.95;4.55;;;;;;;-145.70;100.00;63560.63;4988020;28;20064;-62
2023/05/30 08:11:36;;;;;;;8.23;4.55;;;;;;;-145.70;100.00;63560.63;5019254;28;20052;-59
2023/05/30 08:15:00;;;;;;;9.00;4.65;;;;;;;-145.70;100.00;63560.63;5011989;28;20043;-60
2023/05/30 08:18:24;;;;;;;9.38;4.57;;;;;;;-145.70;100.00;63560.63;5015594;28;20033;-59
2023/05/30 08:21:48;;;;;;;8.52;4.95;;;;;;;-145.70;100.00;63560.63;5005919;28;20026;-61
2023/05/30 08:25:18;;;;;;;8.20;4.60;;;;;;;-145.70;100.00;63560.63;5012095;28;20037;-63
2023/05/30 08:28:46;;;;;;;9.18;4.72;;;;;;;-145.70;100.00;63560.63;4993682;28;20036;-62
2023/05/30 08:32:12;;;;;;;8.73;5.00;;;;;;;-145.70;100.00;63560.63;5003778;28;20699;-62
2023/05/30 08:35:37;;;;;;;11.77;5.03;;;;;;;-145.70;100.00;63560.63;5004295;28;20029;-61
2023/05/30 08:39:03;;;;;;;8.50;5.07;;;;;;;-145.70;100.00;63560.63;4995386;28;20064;-61
2023/05/30 08:42:28;;;;;;;7.88;4.85;;;;;;;-145.70;100.00;63560.63;4991659;28;20033;-61
2023/05/30 08:45:55;;;;;;;8.63;4.72;;;;;;;-145.70;100.00;63560.63;4987002;28;20025;-61
2023/05/30 08:49:25;;;;;;;8.27;4.60;;;;;;;-145.70;100.00;63560.63;4987982;28;20022;-60
2023/05/30 08:53:03;;;;;;;8.60;4.78;;;;;;;-145.70;100.00;63560.63;4985456;28;20029;-60
2023/05/30 08:56:43;;;;;;;9.82;5.00;;;;;;;-145.70;100.00;63560.63;4985042;28;20095;-60
2023/05/30 09:00:19;;;;;;;8.80;5.05;;;;;;;-145.70;100.00;63560.63;4984040;28;20032;-60
2023/05/30 09:03:44;;;;;;;10.13;5.38;;;;;;;-145.70;100.00;63560.63;4985481;28;20061;-61
2023/05/30 09:07:12;;;;;;;9.23;4.82;;;;;;;-145.70;100.00;63560.63;4993136;28;20661;-61
2023/05/30 09:10:48;;;;;;;11.68;5.80;;;;;;;-145.70;100.00;63560.63;4999710;28;20028;-61
2023/05/30 09:14:15;;;;;;;8.05;5.28;;;;;;;-145.70;100.00;63560.63;4971994;28;20061;-61
2023/05/30 09:17:42;;;;;;;13.95;5.95;;;;;;;-145.70;100.00;63560.63;4990784;28;20160;-62
2023/05/30 09:21:20;;;;;;;10.23;5.95;;;;;;;-145.70;100.00;63560.63;4993109;28;20138;-61
2023/05/30 09:25:00;;;;;;;11.82;5.53;;;;;;;-145.70;100.00;63560.63;5004718;28;20550;-62
2023/05/30 09:28:27;;;;;;;9.15;5.47;;;;;;;-145.70;100.00;63560.63;4978479;28;20631;-64
2023/05/30 09:31:58;;;;;;;9.80;6.07;;;;;;;-145.70;100.00;63560.63;4983270;28;20030;-62
2023/05/30 09:35:23;;;;;;;12.27;5.72;;;;;;;-145.70;100.00;63560.63;4990731;28;20039;-61
2023/05/30 09:38:51;;;;;;;10.20;5.18;;;;;;;-145.70;100.00;63560.63;4991960;28;20305;-61
2023/05/30 09:42:15;;;;;;;10.00;5.78;;;;;;;-145.70;100.00;63560.63;4985025;28;20057;-61
2023/05/30 09:45:59;;;;;;;8.20;5.10;;;;;;;-145.70;100.00;63560.63;5007019;28;20649;-64
2023/05/30 09:49:23;;;;;;;8.98;5.32;;;;;;;-145.70;100.00;63560.63;4969470;28;20033;-60
2023/05/30 09:52:56;;;;;;;11.55;6.10;;;;;;;-145.70;100.00;63560.63;4976834;28;20033;-62
2023/05/30 09:56:37;;;;;;;9.43;5.38;;;;;;;-145.70;100.00;63560.63;4990340;28;20048;-63
2023/05/30 10:00:15;;;;;;;8.68;5.22;;;;;;;-145.70;100.00;63560.63;4967205;28;21131;-60
2023/05/30 10:03:41;;;;;;;8.80;5.53;;;;;;;-145.70;100.00;63560.63;4986794;28;20125;-60
2023/05/30 10:07:12;;;;;;;13.45;5.35;;;;;;;-145.70;100.00;63560.63;4990274;28;20064;-60
2023/05/30 10:10:39;;;;;;;8.85;5.25;;;;;;;-145.70;100.00;63560.63;5006571;28;20717;-60
2023/05/30 10:14:09;;;;;;;8.63;5.53;;;;;;;-145.70;100.00;63560.63;4966804;28;20041;-60
2023/05/30 10:17:34;;;;;;;9.52;5.57;;;;;;;-145.70;100.00;63560.63;4989291;28;20029;-60
2023/05/30 10:21:04;;;;;;;9.13;5.15;;;;;;;-145.70;100.00;63560.63;4977612;28;20037;-60
2023/05/30 10:24:51;;;;;;;9.93;5.97;;;;;;;-145.70;100.00;63560.63;4985583;28;20032;-61
2023/05/30 10:28:35;;;;;;;10.75;5.55;;;;;;;-145.70;100.00;63560.63;4993066;28;20118;-62
2023/05/30 10:32:03;;;;;;;10.88;6.38;;;;;;;-145.70;100.00;63560.63;4988636;28;21043;-60
2023/05/30 10:35:46;;;;;;;10.60;6.15;;;;;;;-145.70;100.00;63560.63;4960270;28;20145;-61
2023/05/30 10:39:15;;;;;;;9.50;5.95;;;;;;;-145.70;100.00;63560.63;4971790;28;20042;-60
2023/05/30 10:43:02;;;;;;;12.70;6.50;;;;;;;-145.70;100.00;63560.63;4976771;28;20111;-61
2023/05/30 10:46:51;;;;;;;11.70;7.00;;;;;;;-145.70;100.00;63560.63;5007139;28;20132;-64
2023/05/30 10:50:26;;;;;;;10.97;7.13;;;;;;;-145.70;100.00;63560.63;4982510;28;20033;-62
2023/05/30 10:54:01;;;;;;;11.82;7.28;;;;;;;-145.70;100.00;63560.63;4992033;28;20847;-61
2023/05/30 10:57:32;;;;;;;13.80;7.10;;;;;;;-145.70;100.00;63560.63;4993546;28;20064;-61
2023/05/30 11:01:19;;;;;;;12.10;7.25;;;;;;;-145.70;100.00;63560.63;4992812;28;20712;-61
2023/05/30 11:04:45;;;;;;;12.60;7.32;;;;;;;-145.70;100.00;63560.63;4984675;28;20022;-61
2023/05/30 11:08:09;;;;;;;13.43;8.13;;;;;;;-145.70;100.00;63560.63;4968188;28;20111;-61
2023/05/30 11:11:38;;;;;;;13.07;7.10;;;;;;;-145.70;100.00;63560.63;4985029;28;20026;-61
2023/05/30 11:15:03;;;;;;;11.60;7.13;;;;;;;-145.70;100.00;63560.63;5010987;28;20025;-60
2023/05/30 11:18:41;;;;;;;10.50;6.72;;;;;;;-145.70;100.00;63560.63;4993036;28;20600;-61
2023/05/30 11:22:10;;;;;;;13.27;7.63;;;;;;;-145.70;100.00;63560.63;4992473;28;20960;-61
2023/05/30 11:25:54;;;;;;;10.55;6.90;;;;;;;-145.70;100.00;63560.63;5008919;28;20041;-61
2023/05/30 11:29:42;;;;;;;12.88;7.40;;;;;;;-145.70;100.00;63560.63;5001549;28;20033;-60
2023/05/30 11:33:12;;;;;;;13.32;7.20;;;;;;;-145.70;100.00;63560.63;5012677;28;20051;-61
2023/05/30 11:36:37;;;;;;;11.52;7.03;;;;;;;-145.70;100.00;63560.63;4992843;28;20040;-60
2023/05/30 11:40:12;;;;;;;12.98;7.05;;;;;;;-145.70;100.00;63560.63;5017797;28;20029;-60
2023/05/30 11:43:41;;;;;;;11.75;7.00;;;;;;;-145.70;100.00;63560.63;5026601;28;20025;-62
2023/05/30 11:47:14;;;;;;;15.00;7.70;;;;;;;-145.70;100.00;63560.63;4997930;28;20714;-59
2023/05/30 11:50:43;;;;;;;12.38;7.85;;;;;;;-145.70;100.00;63560.63;5014098;28;20100;-61
2023/05/30 11:54:11;;;;;;;15.80;7.57;;;;;;;-145.70;100.00;63560.63;5015024;28;20037;-61
2023/05/30 11:57:38;;;;;;;11.95;8.25;;;;;;;-145.70;100.00;63560.63;5014555;28;20037;-61
2023/05/30 12:01:09;;;;;;;10.52;6.78;;;;;;;-145.70;100.00;63560.63;5022876;28;20025;-61
2023/05/30 12:04:35;;;;;;;10.93;7.35;;;;;;;-145.70;100.00;63560.63;5013697;28;20435;-59
2023/05/30 12:08:05;;;;;;;12.32;7.43;;;;;;;-145.70;100.00;63560.63;5007952;28;20025;-60
2023/05/30 12:11:37;;;;;;;13.32;8.30;;;;;;;-145.70;100.00;63560.63;5025594;28;20032;-59
2023/05/30 12:15:09;;;;;;;12.15;8.25;;;;;;;-145.70;100.00;63560.63;4997332;28;20033;-62
2023/05/30 12:18:41;;;;;;;12.25;7.97;;;;;;;-145.70;100.00;63560.63;4997644;28;20120;-61
2023/05/30 12:22:09;;;;;;;13.32;7.32;;;;;;;-145.70;100.00;63560.63;5031266;28;20033;-61
2023/05/30 12:25:33;;;;;;;13.57;7.50;;;;;;;-145.70;100.00;63560.63;5014457;28;20025;-61
2023/05/30 12:29:07;;;;;;;10.93;7.20;;;;;;;-145.70;100.00;63560.63;5001655;28;20021;-61
2023/05/30 12:32:32;;;;;;;13.13;7.63;;;;;;;-145.70;100.00;63560.63;5017820;28;20041;-61
2023/05/30 12:35:57;;;;;;;11.98;7.82;;;;;;;-145.70;100.00;63560.63;5008902;28;20029;-61
2023/05/30 12:39:28;;;;;;;11.95;8.27;;;;;;;-145.70;100.00;63560.63;5030549;28;20083;-61
2023/05/30 12:42:55;;;;;;;12.75;7.82;;;;;;;-145.70;100.00;63560.63;5012175;28;20021;-61
2023/05/30 12:46:22;;;;;;;12.55;8.30;;;;;;;-145.70;100.00;63560.63;5014757;28;20041;-60
2023/05/30 12:49:46;;;;;;;11.68;8.32;;;;;;;-145.70;100.00;63560.63;5031053;28;20017;-60
2023/05/30 12:53:20;;;;;;;12.93;7.45;;;;;;;-145.70;100.00;63560.63;4998640;28;20438;-60
2023/05/30 12:56:46;;;;;;;12.80;8.50;;;;;;;-145.70;100.00;63560.63;5031352;28;20402;-60
2023/05/30 13:00:20;;;;;;;13.27;7.75;;;;;;;-145.70;100.00;63560.63;5012898;28;20095;-62
2023/05/30 13:03:44;;;;;;;15.40;9.18;;;;;;;-145.70;100.00;63560.63;5034765;28;20534;-61
2023/05/30 13:07:09;;;;;;;14.57;8.23;;;;;;;-145.70;100.00;63560.63;4995185;28;20040;-60
2023/05/30 13:10:34;;;;;;;12.20;7.78;;;;;;;-145.70;100.00;63560.63;5012338;28;20104;-60
2023/05/30 13:14:01;;;;;;;12.95;8.55;;;;;;;-145.70;100.00;63560.63;5028598;28;20037;-61
2023/05/30 13:17:27;;;;;;;12.25;7.40;;;;;;;-145.70;100.00;63560.63;5011240;28;20476;-60
2023/05/30 13:20:54;;;;;;;12.93;8.52;;;;;;;-145.70;100.00;63560.63;5031295;28;20033;-61
2023/05/30 13:24:23;;;;;;;13.05;8.20;;;;;;;-145.70;100.00;63560.63;5025463;28;20025;-61
2023/05/30 13:27:56;;;;;;;15.85;8.52;;;;;;;-145.70;100.00;63560.63;5016658;28;20033;-61
2023/05/30 13:31:26;;;;;;;13.13;7.95;;;;;;;-145.70;100.00;63560.63;5032148;28;20576;-60
2023/05/30 13:34:50;;;;;;;12.82;7.78;;;;;;;-145.70;100.00;63560.63;5010907;28;20280;-61
2023/05/30 13:38:21;;;;;;;12.30;7.55;;;;;;;-145.70;100.00;63560.63;5017737;28;20056;-62
2023/05/30 13:41:53;;;;;;;10.27;7.10;;;;;;;-145.70;100.00;63560.63;5032829;28;20278;-60
2023/05/30 13:45:22;;;;;;;12.38;7.03;;;;;;;-145.70;100.00;63560.63;5007633;28;20037;-60
2023/05/30 13:48:46;;;;;;;12.35;7.50;;;;;;;-145.70;100.00;63560.63;5026083;28;20037;-60
2023/05/30 13:52:13;;;;;;;12.68;8.10;;;;;;;-145.70;100.00;63560.63;5000345;28;20037;-60
2023/05/30 13:55:37;;;;;;;11.95;7.97;;;;;;;-145.70;100.00;63560.63;5016725;28;20516;-64
2023/05/30 13:59:03;;;;;;;11.52;7.45;;;;;;;-145.70;100.00;63560.63;5033175;28;20041;-60
2023/05/30 14:02:32;;;;;;;13.20;7.68;;;;;;;-145.70;100.00;63560.63;5013483;28;20037;-61
2023/05/30 14:05:56;;;;;;;13.18;7.47;;;;;;;-145.70;100.00;63560.63;5013641;28;20034;-63
2023/05/30 14:09:29;;;;;;;12.02;8.05;;;;;;;-145.70;100.00;63560.63;4995490;28;20484;-60
2023/05/30 14:12:56;;;;;;;13.18;8.20;;;;;;;-145.70;100.00;63560.63;5018091;28;20041;-63
2023/05/30 14:16:23;;;;;;;12.32;8.10;;;;;;;-145.70;100.00;63560.63;5028340;28;20560;-59
2023/05/30 14:19:50;;;;;;;10.70;7.85;;;;;;;-145.70;100.00;63560.63;5012513;28;20029;-63
2023/05/30 14:23:20;;;;;;;11.52;7.45;;;;;;;-145.70;100.00;63560.63;5013300;28;20040;-60
2023/05/30 14:26:46;;;;;;;14.23;8.35;;;;;;;-145.70;100.00;63560.63;5017903;28;20026;-61
2023/05/30 14:30:13;;;;;;;14.02;7.60;;;;;;;-145.70;100.00;63560.63;5015968;28;20021;-60
2023/05/30 14:33:39;;;;;;;12.02;7.20;;;;;;;-145.70;100.00;63560.63;5017004;28;20049;-61
2023/05/30 14:37:06;;;;;;;11.35;7.32;;;;;;;-145.70;100.00;63560.63;5012728;28;20036;-60
2023/05/30 14:40:31;;;;;;;12.02;7.05;;;;;;;-145.70;100.00;63560.63;5013396;28;20047;-61
2023/05/30 14:43:57;;;;;;;11.07;7.60;;;;;;;-145.70;100.00;63560.63;5036501;28;20032;-64
2023/05/30 14:47:24;;;;;;;11.95;7.82;;;;;;;-145.70;100.00;63560.63;5017848;28;20480;-60
2023/05/30 14:50:50;;;;;;;13.45;7.90;;;;;;;-145.70;100.00;63560.63;5019452;28;20025;-61
2023/05/30 14:54:15;;;;;;;9.77;7.30;;;;;;;-145.70;100.00;63560.63;5014546;28;20052;-61
2023/05/30 14:57:39;;;;;;;11.07;7.70;;;;;;;-145.70;100.00;63560.63;5001080;28;20068;-62
2023/05/30 15:01:06;;;;;;;11.48;7.28;;;;;;;-145.70;100.00;63560.63;5021212;28;20052;-62
2023/05/30 15:04:33;;;;;;;12.43;7.82;;;;;;;-145.70;100.00;63560.63;5033828;28;20035;-61
2023/05/30 15:07:57;;;;;;;11.20;7.70;;;;;;;-145.70;100.00;63560.63;5011301;28;20706;-60
2023/05/30 15:11:24;;;;;;;11.82;7.53;;;;;;;-145.70;100.00;63560.63;4991642;28;20148;-61
2023/05/30 15:14:51;;;;;;;10.75;7.15;;;;;;;-145.70;100.00;63560.63;5001475;28;20047;-61
2023/05/30 15:18:19;;;;;;;10.90;7.15;;;;;;;-145.70;100.00;63560.63;5031987;28;20037;-60
2023/05/30 15:21:43;;;;;;;11.35;7.63;;;;;;;-145.70;100.00;63560.63;5022062;28;20103;-61
2023/05/30 15:25:10;;;;;;;11.48;8.20;;;;;;;-145.70;100.00;63560.63;4995045;28;20678;-60
2023/05/30 15:28:36;;;;;;;11.57;7.70;;;;;;;-145.70;100.00;63560.63;4998135;28;20033;-61
2023/05/30 15:32:01;;;;;;;10.55;6.90;;;;;;;-145.70;100.00;63560.63;5017751;28;20033;-62
2023/05/30 15:35:26;;;;;;;12.93;7.40;;;;;;;-145.70;100.00;63560.63;5033037;28;20122;-62
2023/05/30 15:38:52;;;;;;;10.88;7.40;;;;;;;-145.70;100.00;63560.63;5010250;28;20045;-60
2023/05/30 15:42:24;;;;;;;10.52;7.88;;;;;;;-145.70;100.00;63560.63;4993107;28;20033;-62
2023/05/30 15:45:54;;;;;;;11.10;7.50;;;;;;;-145.70;100.00;63560.63;5007780;28;21200;-60
2023/05/30 15:49:18;;;;;;;12.00;7.93;;;;;;;-145.70;100.00;63560.63;5014314;28;20146;-61